createdAt,value
2023-03-24T00:00:02.789Z,100.00
2023-03-24T00:02:29.392Z,100.00
2023-03-24T00:04:58.746Z,100.00
2023-03-24T00:07:26.024Z,100.00
2023-03-24T00:09:53.925Z,100.00
2023-03-24T00:12:20.521Z,100.00
2023-03-24T00:14:47.240Z,100.00
2023-03-24T00:17:13.910Z,100.00
2023-03-24T00:19:41.395Z,100.00
2023-03-24T00:22:14.230Z,100.00
2023-03-24T00:24:42.135Z,100.00
2023-03-24T00:27:08.679Z,100.00
2023-03-24T00:29:36.231Z,100.00
2023-03-24T00:32:02.859Z,100.00
2023-03-24T00:34:29.396Z,100.00
2023-03-24T00:36:55.935Z,100.00
2023-03-24T00:39:22.589Z,100.00
2023-03-24T00:41:49.138Z,100.00
2023-03-24T00:44:19.720Z,100.00
2023-03-24T00:46:55.885Z,100.00
2023-03-24T00:49:42.191Z,100.00
2023-03-24T00:52:15.956Z,100.00
2023-03-24T00:54:43.359Z,100.00
2023-03-24T00:57:12.805Z,100.00
2023-03-24T00:59:42.606Z,100.00
2023-03-24T01:02:12.681Z,100.00
2023-03-24T01:04:40.934Z,100.00
2023-03-24T01:07:10.894Z,100.00
2023-03-24T01:09:38.046Z,100.00
2023-03-24T01:12:04.913Z,100.00
2023-03-24T01:14:32.445Z,100.00
2023-03-24T01:20:11.845Z,100.00
2023-03-24T01:22:40.586Z,100.00
2023-03-24T01:25:28.154Z,100.00
2023-03-24T01:27:54.814Z,100.00
2023-03-24T01:30:24.479Z,100.00
2023-03-24T01:32:52.281Z,100.00
2023-03-24T01:35:20.301Z,100.00
2023-03-24T01:37:46.902Z,100.00
2023-03-24T01:40:23.422Z,100.00
2023-03-24T01:42:51.318Z,100.00
2023-03-24T01:45:40.200Z,100.00
2023-03-24T01:48:10.874Z,100.00
2023-03-24T01:50:38.193Z,100.00
2023-03-24T01:53:06.318Z,100.00
2023-03-24T01:55:33.024Z,100.00
2023-03-24T01:58:02.171Z,100.00
2023-03-24T02:00:29.636Z,100.00
2023-03-24T02:03:06.817Z,100.00
2023-03-24T02:05:37.001Z,100.00
2023-03-24T02:08:12.288Z,100.00
2023-03-24T02:10:39.272Z,100.00
2023-03-24T02:13:07.610Z,100.00
2023-03-24T02:15:44.366Z,100.00
2023-03-24T02:18:25.884Z,100.00
2023-03-24T02:21:13.737Z,100.00
2023-03-24T02:23:49.769Z,100.00
2023-03-24T02:26:19.228Z,100.00
2023-03-24T02:28:48.926Z,100.00
2023-03-24T02:31:39.459Z,100.00
2023-03-24T02:34:31.863Z,100.00
2023-03-24T02:37:18.927Z,100.00
2023-03-24T02:40:24.269Z,100.00
2023-03-24T02:43:00.342Z,100.00
2023-03-24T02:45:27.190Z,100.00
2023-03-24T02:48:08.428Z,100.00
2023-03-24T02:50:56.058Z,100.00
2023-03-24T02:53:55.575Z,100.00
2023-03-24T02:56:24.725Z,100.00
2023-03-24T02:59:02.795Z,100.00
2023-03-24T03:01:38.162Z,100.00
2023-03-24T03:04:29.315Z,100.00
2023-03-24T03:06:59.310Z,100.00
2023-03-24T03:09:28.893Z,100.00
2023-03-24T03:11:59.201Z,100.00
2023-03-24T03:14:47.436Z,100.00
2023-03-24T03:17:30.989Z,100.00
2023-03-24T03:20:07.548Z,100.00
2023-03-24T03:22:43.189Z,100.00
2023-03-24T03:25:13.679Z,100.00
2023-03-24T03:27:43.312Z,100.00
2023-03-24T03:30:18.451Z,100.00
2023-03-24T03:32:54.351Z,100.00
2023-03-24T03:35:36.403Z,100.00
2023-03-24T03:38:25.980Z,100.00
2023-03-24T03:40:59.912Z,100.00
2023-03-24T03:43:27.881Z,100.00
2023-03-24T03:45:55.167Z,100.00
2023-03-24T03:48:22.450Z,100.00
2023-03-24T03:50:50.729Z,100.00
2023-03-24T03:53:26.944Z,100.00
2023-03-24T03:55:53.772Z,100.00
2023-03-24T03:58:20.316Z,100.00
2023-03-24T04:00:46.894Z,100.00
2023-03-24T04:03:34.611Z,100.00
2023-03-24T04:06:27.221Z,100.00
2023-03-24T04:09:09.956Z,100.00
2023-03-24T04:12:01.458Z,100.00
2023-03-24T04:14:30.907Z,100.00
2023-03-24T04:17:30.992Z,100.00
2023-03-24T04:20:22.589Z,100.00
2023-03-24T04:22:58.174Z,100.00
2023-03-24T04:25:35.309Z,100.00
2023-03-24T04:28:26.359Z,100.00
2023-03-24T04:31:01.317Z,100.00
2023-03-24T04:33:48.714Z,100.00
2023-03-24T04:36:27.382Z,100.00
2023-03-24T04:38:57.405Z,100.00
2023-03-24T04:41:28.166Z,100.00
2023-03-24T04:43:57.879Z,100.00
2023-03-24T04:46:25.111Z,100.00
2023-03-24T04:48:51.705Z,100.00
2023-03-24T04:51:20.553Z,100.00
2023-03-24T04:53:47.840Z,100.00
2023-03-24T04:56:37.564Z,100.00
2023-03-24T04:59:04.321Z,100.00
2023-03-24T05:01:30.928Z,100.00
2023-03-24T05:03:59.054Z,100.00
2023-03-24T05:06:26.304Z,100.00
2023-03-24T05:08:53.089Z,100.00
2023-03-24T05:11:20.713Z,100.00
2023-03-24T05:13:47.548Z,100.00
2023-03-24T05:16:14.974Z,100.00
2023-03-24T05:18:41.757Z,100.00
2023-03-24T05:21:08.799Z,100.00
2023-03-24T05:23:35.602Z,100.00
2023-03-24T05:26:02.264Z,100.00
2023-03-24T05:28:28.792Z,100.00
2023-03-24T05:30:55.471Z,100.00
2023-03-24T05:33:22.481Z,100.00
2023-03-24T05:35:49.230Z,100.00
2023-03-24T05:38:15.921Z,100.00
2023-03-24T05:40:42.505Z,100.00
2023-03-24T05:43:09.882Z,100.00
2023-03-24T05:45:36.466Z,100.00
2023-03-24T05:48:03.420Z,100.00
2023-03-24T05:50:30.059Z,100.00
2023-03-24T05:52:57.249Z,100.00
2023-03-24T05:55:24.146Z,100.00
2023-03-24T05:57:51.153Z,100.00
2023-03-24T06:00:18.399Z,100.00
2023-03-24T06:02:45.956Z,100.00
2023-03-24T06:05:13.265Z,100.00
2023-03-24T06:07:42.436Z,100.00
2023-03-24T06:10:11.408Z,100.00
2023-03-24T06:12:38.903Z,100.00
2023-03-24T06:15:06.278Z,100.00
2023-03-24T06:17:33.904Z,100.00
2023-03-24T06:20:04.095Z,100.00
2023-03-24T06:22:33.370Z,100.00
2023-03-24T06:25:00.391Z,100.00
2023-03-24T06:27:35.803Z,100.00
2023-03-24T06:30:02.891Z,100.00
2023-03-24T06:32:29.486Z,100.00
2023-03-24T06:34:56.174Z,100.00
2023-03-24T06:37:23.175Z,100.00
2023-03-24T06:39:49.967Z,100.00
2023-03-24T06:42:17.730Z,100.00
2023-03-24T06:44:44.383Z,100.00
2023-03-24T06:47:10.884Z,100.00
2023-03-24T06:49:37.484Z,100.00
2023-03-24T06:52:05.131Z,100.00
2023-03-24T06:54:31.667Z,100.00
2023-03-24T06:56:58.246Z,100.00
2023-03-24T06:59:24.945Z,100.00
2023-03-24T07:01:52.374Z,100.00
2023-03-24T07:04:19.406Z,100.00
2023-03-24T07:06:58.587Z,100.00
2023-03-24T07:09:32.710Z,100.00
2023-03-24T07:11:59.347Z,100.00
2023-03-24T07:14:26.517Z,100.00
2023-03-24T07:16:53.646Z,100.00
2023-03-24T07:19:20.825Z,100.00
2023-03-24T07:21:50.097Z,100.00
2023-03-24T07:24:17.981Z,100.00
2023-03-24T07:26:44.899Z,100.00
2023-03-24T07:29:11.869Z,100.00
2023-03-24T07:31:39.428Z,100.00
2023-03-24T07:34:06.593Z,100.00
2023-03-24T07:36:33.364Z,100.00
2023-03-24T07:38:59.907Z,100.00
2023-03-24T07:41:27.743Z,100.00
2023-03-24T07:43:54.323Z,100.00
2023-03-24T07:46:20.903Z,100.00
2023-03-24T07:48:47.579Z,100.00
2023-03-24T07:51:14.114Z,100.00
2023-03-24T07:53:40.634Z,100.00
2023-03-24T07:56:07.898Z,100.00
2023-03-24T07:58:34.548Z,100.00
2023-03-24T08:01:01.099Z,100.00
2023-03-24T08:03:28.469Z,100.00
2023-03-24T08:05:55.435Z,100.00
2023-03-24T08:08:22.154Z,100.00
2023-03-24T08:10:50.219Z,100.00
2023-03-24T08:13:17.071Z,100.00
2023-03-24T08:15:43.981Z,100.00
2023-03-24T08:18:11.685Z,100.00
2023-03-24T08:20:38.253Z,100.00
2023-03-24T08:23:06.128Z,100.00
2023-03-24T08:25:32.733Z,100.00
2023-03-24T08:27:59.238Z,100.00
2023-03-24T08:30:26.842Z,100.00
2023-03-24T08:32:59.647Z,100.00
2023-03-24T08:35:32.077Z,100.00
2023-03-24T08:37:59.757Z,100.00
2023-03-24T08:40:27.497Z,100.00
2023-03-24T08:42:57.107Z,100.00
2023-03-24T08:45:27.548Z,100.00
2023-03-24T08:47:55.452Z,100.00
2023-03-24T08:50:24.537Z,100.00
2023-03-24T08:52:51.571Z,100.00
2023-03-24T08:55:19.478Z,100.00
2023-03-24T08:57:46.510Z,100.00
2023-03-24T09:00:15.400Z,100.00
2023-03-24T09:02:51.723Z,100.00
2023-03-24T09:05:32.742Z,100.00
2023-03-24T09:08:08.084Z,100.00
2023-03-24T09:10:34.789Z,100.00
2023-03-24T09:13:01.352Z,100.00
2023-03-24T09:15:27.925Z,100.00
2023-03-24T09:17:54.768Z,100.00
2023-03-24T09:20:21.577Z,100.00
2023-03-24T09:22:48.340Z,100.00
2023-03-24T09:25:17.933Z,100.00
2023-03-24T09:27:45.488Z,100.00
2023-03-24T09:30:14.276Z,100.00
2023-03-24T09:32:40.913Z,100.00
2023-03-24T09:35:08.504Z,100.00
2023-03-24T09:37:38.502Z,100.00
2023-03-24T09:40:06.782Z,99.86
2023-03-24T09:42:37.575Z,96.13
2023-03-24T09:45:15.612Z,95.61
2023-03-24T09:47:53.025Z,95.23
2023-03-24T09:50:40.482Z,93.18
2023-03-24T09:53:39.836Z,92.60
2023-03-24T09:56:16.842Z,94.80
2023-03-24T09:58:47.694Z,91.34
2023-03-24T10:01:16.293Z,91.00
2023-03-24T10:03:44.878Z,89.96
2023-03-24T10:06:18.113Z,86.82
2023-03-24T10:08:50.427Z,88.53
2023-03-24T10:11:31.268Z,85.24
2023-03-24T10:14:22.474Z,82.92
2023-03-24T10:17:19.902Z,81.75
2023-03-24T10:20:05.869Z,83.42
2023-03-24T10:22:44.479Z,81.29
2023-03-24T10:25:11.007Z,78.42
2023-03-24T10:27:57.534Z,76.96
2023-03-24T10:30:28.907Z,76.60
2023-03-24T10:32:55.610Z,77.09
2023-03-24T10:35:27.566Z,73.79
2023-03-24T10:37:58.927Z,74.68
2023-03-24T10:40:33.257Z,75.55
2023-03-24T10:43:07.241Z,71.49
2023-03-24T10:45:40.774Z,65.81
2023-03-24T10:48:09.494Z,61.88
2023-03-24T10:50:42.944Z,61.43
2023-03-24T10:53:18.657Z,59.88
2023-03-24T10:55:46.189Z,58.95
2023-03-24T10:58:39.457Z,58.99
2023-03-24T11:01:23.514Z,61.93
2023-03-24T11:03:51.057Z,62.53
2023-03-24T11:06:20.726Z,63.96
2023-03-24T11:08:48.023Z,65.12
2023-03-24T11:11:26.621Z,62.79
2023-03-24T11:13:59.021Z,62.10
2023-03-24T11:16:32.173Z,56.22
2023-03-24T11:19:05.325Z,53.17
2023-03-24T11:21:35.501Z,49.46
2023-03-24T11:24:20.903Z,45.00
2023-03-24T11:27:00.175Z,40.28
2023-03-24T11:29:28.146Z,37.93
2023-03-24T11:32:01.697Z,37.96
2023-03-24T11:34:42.239Z,39.02
2023-03-24T11:37:23.414Z,39.95
2023-03-24T11:40:13.312Z,39.67
2023-03-24T11:43:08.271Z,40.27
2023-03-24T11:45:40.738Z,39.75
2023-03-24T11:48:23.923Z,40.05
2023-03-24T11:50:52.686Z,41.76
2023-03-24T11:53:23.421Z,42.05
2023-03-24T11:55:56.429Z,43.47
2023-03-24T11:58:41.605Z,44.39
2023-03-24T12:01:17.267Z,45.51
2023-03-24T12:04:10.271Z,44.67
2023-03-24T12:06:55.906Z,45.61
2023-03-24T12:09:32.039Z,46.80
2023-03-24T12:11:58.623Z,48.13
2023-03-24T12:14:53.237Z,49.84
2023-03-24T12:17:42.911Z,48.03
2023-03-24T12:20:20.550Z,45.89
2023-03-24T12:23:16.231Z,41.88
2023-03-24T12:26:08.746Z,40.99
2023-03-24T12:29:09.304Z,39.14
2023-03-24T12:31:38.738Z,36.34
2023-03-24T12:34:36.419Z,34.93
2023-03-24T12:37:21.482Z,33.18
2023-03-24T12:40:12.981Z,31.44
2023-03-24T12:42:45.338Z,28.61
2023-03-24T12:45:29.367Z,27.74
2023-03-24T12:48:13.684Z,27.15
2023-03-24T12:50:40.474Z,29.13
2023-03-24T12:53:28.602Z,30.75
2023-03-24T12:56:01.471Z,30.02
2023-03-24T12:58:43.046Z,27.02
2023-03-24T13:01:19.353Z,24.98
2023-03-24T13:03:53.898Z,23.83
2023-03-24T13:06:54.799Z,23.71
2023-03-24T13:09:53.335Z,26.24
2023-03-24T13:12:23.967Z,28.96
2023-03-24T13:15:13.468Z,30.82
2023-03-24T13:17:55.457Z,33.05
2023-03-24T13:20:27.876Z,34.12
2023-03-24T13:22:56.092Z,35.31
2023-03-24T13:25:48.641Z,36.34
2023-03-24T13:28:37.724Z,38.03
2023-03-24T13:31:07.426Z,38.94
2023-03-24T13:33:37.712Z,40.27
2023-03-24T13:36:19.123Z,41.92
2023-03-24T13:38:52.989Z,43.76
2023-03-24T13:41:24.196Z,44.80
2023-03-24T13:43:58.546Z,46.23
2023-03-24T13:46:25.715Z,47.22
2023-03-24T13:48:55.923Z,48.12
2023-03-24T13:51:31.499Z,48.79
2023-03-24T13:54:16.142Z,50.08
2023-03-24T13:56:53.264Z,51.71
2023-03-24T13:59:37.935Z,52.87
2023-03-24T14:02:43.760Z,53.64
2023-03-24T14:05:37.717Z,52.69
2023-03-24T14:08:07.143Z,53.31
2023-03-24T14:10:41.603Z,54.15
2023-03-24T14:13:14.343Z,55.10
2023-03-24T14:15:57.677Z,55.46
2023-03-24T14:18:24.524Z,56.78
2023-03-24T14:21:03.829Z,58.85
2023-03-24T14:23:53.194Z,60.55
2023-03-24T14:26:19.680Z,60.24
2023-03-24T14:28:48.876Z,60.93
2023-03-24T14:31:15.676Z,60.44
2023-03-24T14:33:54.486Z,59.23
2023-03-24T14:36:30.490Z,59.42
2023-03-24T14:39:06.417Z,60.41
2023-03-24T14:41:39.186Z,61.45
2023-03-24T14:44:06.533Z,62.52
2023-03-24T14:46:48.161Z,63.85
2023-03-24T14:49:24.592Z,66.71
2023-03-24T14:52:12.706Z,67.90
2023-03-24T14:54:45.978Z,68.79
2023-03-24T14:57:21.393Z,70.13
2023-03-24T15:00:12.762Z,71.60
2023-03-24T15:02:44.892Z,73.33
2023-03-24T15:05:17.451Z,74.72
2023-03-24T15:07:46.621Z,74.19
2023-03-24T15:10:19.932Z,75.53
2023-03-24T15:12:49.154Z,77.17
2023-03-24T15:15:22.154Z,78.61
2023-03-24T15:17:50.406Z,80.04
2023-03-24T15:20:27.307Z,82.10
2023-03-24T15:22:55.397Z,82.18
2023-03-24T15:25:28.057Z,82.65
2023-03-24T15:27:57.676Z,84.85
2023-03-24T15:30:26.094Z,87.84
2023-03-24T15:32:52.915Z,88.53
2023-03-24T15:35:22.716Z,89.95
2023-03-24T15:37:56.850Z,90.45
2023-03-24T15:40:26.488Z,91.22
2023-03-24T15:42:56.074Z,92.90
2023-03-24T15:45:33.904Z,93.93
2023-03-24T15:48:26.420Z,95.88
2023-03-24T15:51:06.291Z,97.33
2023-03-24T15:53:44.086Z,97.87
2023-03-24T15:56:24.442Z,99.22
2023-03-24T15:58:56.934Z,100.00
2023-03-24T16:01:52.980Z,100.00
2023-03-24T16:04:23.521Z,100.00
2023-03-24T16:06:53.859Z,100.00
2023-03-24T16:09:27.717Z,100.00
2023-03-24T16:11:54.597Z,100.00
2023-03-24T16:14:25.240Z,100.00
2023-03-24T16:16:57.103Z,100.00
2023-03-24T16:19:24.308Z,100.00
2023-03-24T16:21:50.965Z,100.00
2023-03-24T16:24:17.685Z,100.00
2023-03-24T16:26:44.192Z,100.00
2023-03-24T16:29:14.132Z,100.00
2023-03-24T16:31:40.997Z,100.00
2023-03-24T16:34:07.602Z,100.00
2023-03-24T16:36:34.321Z,100.00
2023-03-24T16:39:05.214Z,100.00
2023-03-24T16:41:31.822Z,100.00
2023-03-24T16:43:58.338Z,100.00
2023-03-24T16:46:27.644Z,100.00
2023-03-24T16:48:54.668Z,100.00
2023-03-24T16:51:22.035Z,100.00
2023-03-24T16:53:48.809Z,100.00
2023-03-24T16:56:18.552Z,100.00
2023-03-24T16:58:47.984Z,100.00
2023-03-24T17:01:27.703Z,100.00
2023-03-24T17:03:59.197Z,100.00
2023-03-24T17:06:27.514Z,100.00
2023-03-24T17:08:54.352Z,100.00
2023-03-24T17:11:27.176Z,100.00
2023-03-24T17:13:54.384Z,100.00
2023-03-24T17:16:22.911Z,100.00
2023-03-24T17:18:49.548Z,100.00
2023-03-24T17:21:19.899Z,100.00
2023-03-24T17:23:49.391Z,100.00
2023-03-24T17:26:17.130Z,100.00
2023-03-24T17:28:43.922Z,100.00
2023-03-24T17:31:10.883Z,100.00
2023-03-24T17:33:37.435Z,100.00
2023-03-24T17:36:04.259Z,100.00
2023-03-24T17:38:30.884Z,100.00
2023-03-24T17:41:01.999Z,100.00
2023-03-24T17:43:28.673Z,100.00
2023-03-24T17:45:59.283Z,100.00
2023-03-24T17:48:26.759Z,100.00
2023-03-24T17:50:53.948Z,100.00
2023-03-24T17:53:28.559Z,100.00
2023-03-24T17:55:58.319Z,100.00
2023-03-24T17:58:30.752Z,100.00
2023-03-24T18:00:58.612Z,100.00
2023-03-24T18:03:39.089Z,100.00
2023-03-24T18:06:10.349Z,100.00
2023-03-24T18:08:37.665Z,100.00
2023-03-24T18:11:17.236Z,100.00
2023-03-24T18:13:43.968Z,100.00
2023-03-24T18:16:20.836Z,100.00
2023-03-24T18:18:48.840Z,100.00
2023-03-24T18:21:15.522Z,100.00
2023-03-24T18:23:42.195Z,100.00
2023-03-24T18:26:09.370Z,100.00
2023-03-24T18:28:37.526Z,100.00
2023-03-24T18:31:21.372Z,100.00
2023-03-24T18:33:49.672Z,100.00
2023-03-24T18:36:21.310Z,100.00
2023-03-24T18:38:48.461Z,100.00
2023-03-24T18:41:16.750Z,100.00
2023-03-24T18:43:47.526Z,100.00
2023-03-24T18:46:14.559Z,100.00
2023-03-24T18:48:42.629Z,100.00
2023-03-24T18:51:10.214Z,100.00
2023-03-24T18:53:37.496Z,100.00
2023-03-24T18:56:06.060Z,100.00
2023-03-24T18:58:33.747Z,100.00
2023-03-24T19:01:06.923Z,100.00
2023-03-24T19:03:35.717Z,100.00
2023-03-24T19:06:06.994Z,100.00
2023-03-24T19:08:36.047Z,100.00
2023-03-24T19:11:02.683Z,100.00
2023-03-24T19:13:29.604Z,100.00
2023-03-24T19:15:56.266Z,100.00
2023-03-24T19:18:23.336Z,100.00
2023-03-24T19:20:54.483Z,100.00
2023-03-24T19:23:21.341Z,100.00
2023-03-24T19:25:48.601Z,100.00
2023-03-24T19:28:16.575Z,100.00
2023-03-24T19:30:43.222Z,100.00
2023-03-24T19:33:11.290Z,100.00
2023-03-24T19:35:39.288Z,100.00
2023-03-24T19:38:06.090Z,100.00
2023-03-24T19:40:32.632Z,100.00
2023-03-24T19:42:59.207Z,100.00
2023-03-24T19:45:25.882Z,100.00
2023-03-24T19:47:52.563Z,100.00
2023-03-24T19:50:19.335Z,100.00
2023-03-24T19:52:46.180Z,100.00
2023-03-24T19:55:13.526Z,100.00
2023-03-24T19:57:40.657Z,100.00
2023-03-24T20:00:10.159Z,100.00
2023-03-24T20:02:38.177Z,100.00
2023-03-24T20:05:06.863Z,100.00
2023-03-24T20:07:33.954Z,100.00
2023-03-24T20:10:00.649Z,100.00
2023-03-24T20:12:27.824Z,100.00
2023-03-24T20:14:54.678Z,100.00
2023-03-24T20:17:23.143Z,100.00
2023-03-24T20:19:50.744Z,100.00
2023-03-24T20:22:17.516Z,100.00
2023-03-24T20:24:44.528Z,100.00
2023-03-24T20:27:11.262Z,100.00
2023-03-24T20:29:39.606Z,100.00
2023-03-24T20:32:08.154Z,100.00
2023-03-24T20:34:34.728Z,100.00
2023-03-24T20:37:01.469Z,100.00
2023-03-24T20:39:27.999Z,100.00
2023-03-24T20:41:54.668Z,100.00
2023-03-24T20:44:21.200Z,100.00
2023-03-24T20:46:47.908Z,100.00
2023-03-24T20:49:16.688Z,100.00
2023-03-24T20:51:44.652Z,100.00
2023-03-24T20:54:11.579Z,100.00
2023-03-24T20:56:38.389Z,100.00
2023-03-24T20:59:06.846Z,100.00
2023-03-24T21:01:37.333Z,100.00
2023-03-24T21:04:09.049Z,100.00
2023-03-24T21:06:38.131Z,100.00
2023-03-24T21:09:05.089Z,100.00
2023-03-24T21:11:32.315Z,100.00
2023-03-24T21:13:59.558Z,100.00
2023-03-24T21:16:26.924Z,100.00
2023-03-24T21:18:56.054Z,100.00
2023-03-24T21:21:22.930Z,100.00
2023-03-24T21:23:52.634Z,100.00
2023-03-24T21:26:19.461Z,100.00
2023-03-24T21:28:46.152Z,100.00
2023-03-24T21:31:24.662Z,100.00
2023-03-24T21:33:51.832Z,100.00
2023-03-24T21:36:18.577Z,100.00
2023-03-24T21:38:45.506Z,100.00
2023-03-24T21:41:12.018Z,100.00
2023-03-24T21:43:40.442Z,100.00
2023-03-24T21:46:14.854Z,100.00
2023-03-24T21:48:51.343Z,100.00
2023-03-24T21:51:26.243Z,100.00
2023-03-24T21:53:59.318Z,100.00
2023-03-24T21:56:25.966Z,100.00
2023-03-24T21:58:54.506Z,100.00
2023-03-24T22:01:21.891Z,100.00
2023-03-24T22:03:48.799Z,100.00
2023-03-24T22:06:15.450Z,100.00
2023-03-24T22:08:43.952Z,100.00
2023-03-24T22:11:10.896Z,100.00
2023-03-24T22:13:39.204Z,100.00
2023-03-24T22:16:06.985Z,100.00
2023-03-24T22:18:34.986Z,100.00
2023-03-24T22:21:07.656Z,100.00
2023-03-24T22:23:38.005Z,100.00
2023-03-24T22:26:08.291Z,100.00
2023-03-24T22:28:36.332Z,100.00
2023-03-24T22:31:08.577Z,100.00
2023-03-24T22:33:35.814Z,100.00
2023-03-24T22:36:02.977Z,100.00
2023-03-24T22:38:30.549Z,100.00
2023-03-24T22:40:59.290Z,100.00
2023-03-24T22:43:26.778Z,100.00
2023-03-24T22:45:53.436Z,100.00
2023-03-24T22:48:20.257Z,100.00
2023-03-24T22:50:47.527Z,100.00
2023-03-24T22:53:14.217Z,100.00
2023-03-24T22:55:42.215Z,100.00
2023-03-24T22:58:09.298Z,100.00
2023-03-24T23:00:36.240Z,100.00
2023-03-24T23:03:03.911Z,100.00
2023-03-24T23:05:31.266Z,100.00
2023-03-24T23:07:59.236Z,100.00
2023-03-24T23:10:27.682Z,100.00
2023-03-24T23:12:54.303Z,100.00
2023-03-24T23:15:23.356Z,100.00
2023-03-24T23:17:51.521Z,100.00
2023-03-24T23:20:19.872Z,100.00
2023-03-24T23:22:49.213Z,100.00
2023-03-24T23:25:15.886Z,100.00
2023-03-24T23:27:42.576Z,100.00
2023-03-24T23:30:11.898Z,100.00
2023-03-24T23:32:41.000Z,100.00
2023-03-24T23:35:08.900Z,100.00
2023-03-24T23:37:36.705Z,100.00
2023-03-24T23:40:12.541Z,100.00
2023-03-24T23:42:44.400Z,100.00
2023-03-24T23:45:14.505Z,100.00
2023-03-24T23:47:43.125Z,100.00
2023-03-24T23:50:11.399Z,100.00
2023-03-24T23:52:41.275Z,100.00
2023-03-24T23:55:10.233Z,100.00
2023-03-24T23:57:38.480Z,100.00
